»·PEaware :: OM-JAN L52-L88

OM-JAN :: L52-L88

FLIGHT INFORMATION

Flight Status: Arrived
Operator: Privately registered:
Slovakia
More flights under this callsign
Pilot: Jan A. (20210)
Aircraft: STINSON L-5 U-19 OY SENTENEL
(L5)
More flights by this aircraft type
Origin: L52 Oceano Co
United States
Destination: L88 New Cuyama
United States
More flights between these airports :: More routes between these airports
Route:
File this flight plan on PilotEdge
Remarks: CAT-01
Altitude:
(Current/Filed)
3,500ft
Speed:
(Current/Filed)
90kts
Departed: 24-Sep-18 11:37 AM
Arrived: 24-Sep-18 12:14 PM
Distance/Time
Traveled:
47nm/0:36
Distance/Time
To Go:
Arrived

Flight Plot

Page will automatically refresh every two minutes.


Map Options




Map Legend


Flown Route
Filed Route
Departure Airport
Arrival Airport
Navaid (VOR, NDB)
Fix

Horizontal Profiles

Position Reports

Time Latitude Longitude Heading Altitude Ground
Speed
24-Sep-18 11:22 35.102465 -120.622783 34 16ft 0kts
24-Sep-18 11:23 35.102465 -120.622783 34 16ft 0kts
24-Sep-18 11:24 35.102465 -120.622783 34 16ft 0kts
24-Sep-18 11:27 35.102465 -120.622783 34 16ft 0kts
24-Sep-18 11:28 35.102465 -120.622783 34 16ft 0kts
24-Sep-18 11:29 35.102465 -120.622783 34 16ft 0kts
24-Sep-18 11:30 35.102465 -120.622783 34 16ft 0kts
24-Sep-18 11:31 35.102465 -120.622783 34 16ft 0kts
24-Sep-18 11:32 35.102465 -120.622783 34 16ft 0kts
24-Sep-18 11:33 35.102465 -120.622783 34 16ft 0kts
24-Sep-18 11:34 35.102493 -120.622762 16 16ft 2kts
24-Sep-18 11:35 35.102787 -120.623693 250 15ft 0kts
24-Sep-18 11:36 35.103708 -120.624916 251 13ft 7kts
24-Sep-18 11:37 35.103543 -120.625148 213 13ft 0kts
24-Sep-18 11:38 35.103284 -120.625334 204 13ft 3kts
24-Sep-18 11:39 35.097347 -120.616824 121 424ft 62kts
24-Sep-18 11:40 35.091982 -120.593086 105 1442ft 71kts
24-Sep-18 11:41 35.091137 -120.570160 91 2578ft 69kts
24-Sep-18 11:42 35.089212 -120.546516 104 3516ft 76kts
24-Sep-18 11:43 35.082824 -120.516362 108 3494ft 98kts
24-Sep-18 11:44 35.077576 -120.484117 98 3369ft 95kts
24-Sep-18 11:45 35.068534 -120.456712 118 3660ft 86kts
24-Sep-18 11:46 35.061483 -120.423787 90 1755ft 107kts
24-Sep-18 11:47 35.053235 -120.392975 120 1301ft 117kts
24-Sep-18 11:48 35.043899 -120.363214 119 1864ft 84kts
24-Sep-18 11:49 35.034563 -120.336054 112 2286ft 89kts
24-Sep-18 11:50 35.030396 -120.304638 70 2362ft 95kts
24-Sep-18 11:51 35.023308 -120.272714 100 2460ft 98kts
24-Sep-18 11:52 35.021169 -120.240169 62 2668ft 94kts
24-Sep-18 11:53 35.023140 -120.208300 104 2840ft 99kts
24-Sep-18 11:54 35.022408 -120.175773 83 3051ft 94kts
24-Sep-18 11:55 35.016315 -120.146781 119 3359ft 78kts
24-Sep-18 11:56 35.009414 -120.124652 107 3953ft 75kts
24-Sep-18 11:57 35.000236 -120.091243 106 4430ft 89kts
24-Sep-18 11:58 34.985574 -120.075615 150 4672ft 87kts
24-Sep-18 11:59 34.971254 -120.046368 98 5261ft 85kts
24-Sep-18 12:00 34.973941 -120.016070 87 5646ft 90kts
24-Sep-18 12:01 34.976924 -119.990960 86 5974ft 92kts
24-Sep-18 12:02 34.975205 -119.957466 108 5563ft 80kts
24-Sep-18 12:03 34.971670 -119.934991 103 5098ft 82kts
24-Sep-18 12:04 34.965099 -119.903038 95 4653ft 83kts
24-Sep-18 12:05 34.958412 -119.878571 113 4330ft 97kts
24-Sep-18 12:06 34.945807 -119.850556 121 4052ft 91kts
24-Sep-18 12:07 34.933454 -119.822653 117 3767ft 92kts
24-Sep-18 12:08 34.923125 -119.793886 114 3531ft 92kts
24-Sep-18 12:09 34.914418 -119.765233 107 3398ft 88kts
24-Sep-18 12:10 34.910575 -119.737378 62 3391ft 86kts
24-Sep-18 12:11 34.917874 -119.710124 71 3416ft 83kts
24-Sep-18 12:12 34.915599 -119.682489 112 3312ft 84kts
24-Sep-18 12:13 34.914406 -119.655467 21 3182ft 87kts
24-Sep-18 12:14 34.931788 -119.660389 292 3073ft 69kts
24-Sep-18 12:15 34.937562 -119.679789 298 2224ft 53kts
24-Sep-18 12:16 34.939573 -119.684766 296 2180ft 29kts
24-Sep-18 12:17 34.942899 -119.691063 26 2154ft 8kts
24-Sep-18 12:18 34.943310 -119.690755 308 2154ft 0kts
24-Sep-18 12:19 34.943320 -119.690766 270 2154ft 0kts
24-Sep-18 12:20 34.943320 -119.690766 270 2154ft 0kts
24-Sep-18 12:21 34.943320 -119.690766 270 2154ft 0kts
24-Sep-18 12:22 34.943320 -119.690766 270 2154ft 0kts
24-Sep-18 12:23 34.943320 -119.690766 270 2154ft 0kts
24-Sep-18 12:24 34.943320 -119.690766 270 2154ft 0kts

Navigation Log

Ident Type
Flight plan parsing failed, navigation log unavailable